Time;durP1;ratioP1;P1;durP2;ratioP2;P2;SDS_P1;SDS_P2;PMS_P1;PMS_P2;Temp;Humidity;BMP_temperature;BMP_pressure;BME280_temperature;BME280_humidity;BME280_pressure;Samples;Min_cycle;Max_cycle;Signal;HPM_P1;HPM_P2
2022/10/07 17:50:18;;;;;;;6.18;1.85;;;;;;;-143.85;100.00;70650.75;5153792;23;4292123;-96
2022/10/07 17:52:43;;;;;;;8.15;1.65;;;;;;;-143.85;100.00;70650.75;4938011;29;20067;-94
2022/10/07 17:55:09;;;;;;;5.53;3.75;;;;;;;-143.85;100.00;70650.75;4936520;29;20039;-90
2022/10/07 17:57:34;;;;;;;7.63;2.72;;;;;;;-143.85;100.00;70650.75;4912734;29;20046;-91
2022/10/07 18:00:02;;;;;;;2.72;1.40;;;;;;;-143.85;100.00;70650.75;4915987;29;20039;-89
2022/10/07 18:02:27;;;;;;;4.28;2.20;;;;;;;-143.85;100.00;70650.75;4934730;29;20515;-89
2022/10/07 18:04:53;;;;;;;4.13;1.05;;;;;;;-143.85;100.00;70650.75;4935653;29;20035;-89
2022/10/07 18:07:19;;;;;;;5.88;2.58;;;;;;;-143.85;100.00;70650.75;4918596;29;20514;-87
2022/10/07 18:09:44;;;;;;;3.13;1.45;;;;;;;-143.85;100.00;70650.75;4918606;29;20034;-87
2022/10/07 18:17:38;;;;;;;8.65;3.00;;;;;;;-143.85;100.00;70650.75;4935676;29;20039;-87
2022/10/07 18:20:05;;;;;;;4.00;2.17;;;;;;;-143.85;100.00;70650.75;4918496;29;20039;-88
2022/10/07 18:22:33;;;;;;;3.22;1.10;;;;;;;-143.85;100.00;70650.75;4918405;29;20028;-88
2022/10/07 18:24:59;;;;;;;3.42;1.90;;;;;;;-143.85;100.00;70650.75;4935527;29;20065;-87
2022/10/07 18:27:26;;;;;;;9.63;3.75;;;;;;;-143.85;100.00;70650.75;4935195;29;20043;-87
2022/10/07 18:29:52;;;;;;;9.90;3.35;;;;;;;-143.85;100.00;70650.75;4918330;29;20099;-87
2022/10/07 18:32:18;;;;;;;8.20;3.08;;;;;;;-143.85;100.00;70650.75;4915425;29;20028;-89
2022/10/07 18:34:43;;;;;;;1.88;1.30;;;;;;;-143.85;100.00;70650.75;4914077;29;20087;-89
2022/10/07 18:37:09;;;;;;;6.68;2.15;;;;;;;-143.85;100.00;70650.75;4918616;29;20032;-88
2022/10/07 18:39:34;;;;;;;3.35;1.63;;;;;;;-143.85;100.00;70650.75;4918572;29;20118;-90
2022/10/07 18:41:59;;;;;;;3.33;1.92;;;;;;;-143.85;100.00;70650.75;4918190;29;20151;-88
2022/10/07 18:44:26;;;;;;;4.03;1.80;;;;;;;-143.85;100.00;70650.75;4914519;29;20485;-88
2022/10/07 18:46:51;;;;;;;2.28;1.42;;;;;;;-143.85;100.00;70650.75;4918993;29;20435;-88
2022/10/07 18:49:16;;;;;;;4.05;1.35;;;;;;;-143.85;100.00;70650.75;4921704;29;20094;-90
2022/10/07 18:51:44;;;;;;;1.33;0.90;;;;;;;-143.85;100.00;70650.75;4922055;29;20055;-88
2022/10/07 18:54:10;;;;;;;4.95;0.95;;;;;;;-143.85;100.00;70650.75;4921817;29;20043;-89
2022/10/07 18:56:35;;;;;;;16.38;2.78;;;;;;;-143.85;100.00;70650.75;4916183;29;20028;-88
2022/10/07 18:59:01;;;;;;;5.97;2.25;;;;;;;-143.85;100.00;70650.75;4914720;29;20106;-90
2022/10/07 19:01:28;;;;;;;1.73;1.10;;;;;;;-143.85;100.00;70650.75;4921914;29;20491;-89
2022/10/07 19:03:57;;;;;;;3.42;1.13;;;;;;;-143.85;100.00;70650.75;4921723;29;20091;-89
2022/10/07 19:06:24;;;;;;;1.15;0.93;;;;;;;-143.85;100.00;70650.75;4938826;29;20061;-90
2022/10/07 19:08:58;;;;;;;3.33;1.37;;;;;;;-143.85;100.00;70650.75;4921886;29;20046;-89
2022/10/07 19:11:24;;;;;;;1.45;0.90;;;;;;;-143.85;100.00;70650.75;4938668;29;20058;-90
2022/10/07 19:13:57;;;;;;;5.10;1.35;;;;;;;-143.85;100.00;70650.75;4938411;29;20023;-89
2022/10/07 19:16:33;;;;;;;2.03;1.02;;;;;;;-143.85;100.00;70650.75;4921486;29;20040;-89
2022/10/07 19:18:59;;;;;;;3.30;1.70;;;;;;;-143.85;100.00;70650.75;4938768;29;20035;-89
2022/10/07 19:21:26;;;;;;;5.68;2.42;;;;;;;-143.85;100.00;70650.75;4921498;29;20036;-90
2022/10/07 19:23:53;;;;;;;5.18;1.58;;;;;;;-143.85;100.00;70650.75;4921228;29;20027;-90
2022/10/07 19:26:25;;;;;;;2.17;1.27;;;;;;;-143.85;100.00;70650.75;4921296;29;20492;-90
2022/10/07 19:28:51;;;;;;;1.88;1.33;;;;;;;-143.85;100.00;70650.75;4921468;29;20060;-89
2022/10/07 19:31:22;;;;;;;2.22;1.33;;;;;;;-143.85;100.00;70650.75;4921216;29;20035;-89
2022/10/07 19:33:49;;;;;;;1.27;1.17;;;;;;;-143.85;100.00;70650.75;4932661;29;20028;-90
2022/10/07 19:36:16;;;;;;;1.23;0.80;;;;;;;-143.85;100.00;70650.75;4912893;29;20031;-90
2022/10/07 19:38:43;;;;;;;2.95;1.27;;;;;;;-143.85;100.00;70650.75;4917834;29;20038;-89
2022/10/07 19:41:14;;;;;;;3.05;1.40;;;;;;;-143.85;100.00;70650.75;4920878;29;20155;-89
2022/10/07 19:43:42;;;;;;;4.65;1.85;;;;;;;-143.85;100.00;70650.75;4906129;29;20040;-85
2022/10/07 19:46:08;;;;;;;3.00;1.13;;;;;;;-143.85;100.00;70650.75;4921176;29;20028;-89
2022/10/07 19:48:35;;;;;;;0.85;0.85;;;;;;;-143.85;100.00;70650.75;4920840;29;20040;-89
2022/10/07 19:51:03;;;;;;;0.93;0.57;;;;;;;-143.85;100.00;70650.75;4920803;29;20123;-92
2022/10/07 19:53:33;;;;;;;2.67;1.00;;;;;;;-143.85;100.00;70650.75;4920929;29;20053;-92
2022/10/07 19:56:14;;;;;;;1.50;1.02;;;;;;;-143.85;100.00;70650.75;4932158;29;20032;-91
2022/10/07 19:59:01;;;;;;;0.95;0.85;;;;;;;-143.85;100.00;70650.75;4920716;29;20032;-91
2022/10/07 20:01:30;;;;;;;0.85;0.85;;;;;;;-143.85;100.00;70650.75;4920819;29;20035;-91
2022/10/07 20:03:58;;;;;;;1.55;0.60;;;;;;;-143.85;100.00;70650.75;4920884;29;20035;-92
2022/10/07 20:06:25;;;;;;;3.58;1.40;;;;;;;-143.85;100.00;70650.75;4917839;29;20024;-92
2022/10/07 20:08:51;;;;;;;2.60;1.05;;;;;;;-143.85;100.00;70650.75;4918993;29;20040;-91
2022/10/07 20:11:16;;;;;;;2.83;1.35;;;;;;;-143.85;100.00;70650.75;4920551;29;20551;-92
2022/10/07 20:13:41;;;;;;;2.05;1.05;;;;;;;-143.85;100.00;70650.75;4920159;29;20514;-91
2022/10/07 20:16:09;;;;;;;2.60;1.10;;;;;;;-143.85;100.00;70650.75;4937410;29;20476;-91
2022/10/07 20:18:36;;;;;;;1.33;0.90;;;;;;;-143.85;100.00;70650.75;4906167;29;20028;-92
2022/10/07 20:21:23;;;;;;;7.07;2.38;;;;;;;-143.85;100.00;70650.75;4907595;29;20481;-92
2022/10/07 20:23:51;;;;;;;15.73;4.28;;;;;;;-143.85;100.00;70650.75;4909166;29;20037;-90
2022/10/07 20:26:24;;;;;;;24.88;6.20;;;;;;;-143.85;100.00;70650.75;4905880;29;20063;-91
2022/10/07 20:28:51;;;;;;;25.98;7.03;;;;;;;-143.85;100.00;70650.75;4914708;29;20031;-91
2022/10/07 20:31:20;;;;;;;25.05;8.10;;;;;;;-143.85;100.00;70650.75;4920419;29;20411;-91
2022/10/07 20:33:48;;;;;;;26.65;5.85;;;;;;;-143.85;100.00;70650.75;4920453;29;20087;-91
2022/10/07 20:36:17;;;;;;;26.30;7.95;;;;;;;-143.85;100.00;70650.75;4920391;29;20206;-89
2022/10/07 20:44:14;;;;;;;27.65;8.93;;;;;;;-143.85;100.00;70650.75;4937252;29;20075;-91
2022/10/07 20:46:39;;;;;;;46.33;9.10;;;;;;;-143.85;100.00;70650.75;4920265;29;20118;-91
2022/10/07 20:49:11;;;;;;;17.23;5.97;;;;;;;-143.85;100.00;70650.75;4920074;29;20118;-91
2022/10/07 20:51:40;;;;;;;8.63;3.47;;;;;;;-143.85;100.00;70650.75;4920053;29;20047;-92
2022/10/07 20:54:05;;;;;;;1.95;1.10;;;;;;;-143.85;100.00;70650.75;4920077;29;20064;-92
2022/10/07 20:56:31;;;;;;;2.65;1.27;;;;;;;-143.85;100.00;70650.75;4920062;29;20028;-91
2022/10/07 20:58:57;;;;;;;2.05;1.70;;;;;;;-143.85;100.00;70650.75;4936900;29;20420;-91
2022/10/07 21:01:24;;;;;;;2.17;0.82;;;;;;;-143.85;100.00;70650.75;4919685;29;20071;-91
2022/10/07 21:03:49;;;;;;;1.67;1.52;;;;;;;-143.85;100.00;70650.75;4920354;29;20051;-91
2022/10/07 21:06:17;;;;;;;1.55;1.35;;;;;;;-143.85;100.00;70650.75;4921688;29;20477;-91
2022/10/07 21:08:46;;;;;;;;;;;;;;;-143.85;100.00;70650.75;4908696;29;20142;-91
2022/10/07 21:11:12;;;;;;;1.77;1.30;;;;;;;-143.85;100.00;70650.75;4919661;29;20371;-91
2022/10/07 21:13:37;;;;;;;1.15;0.90;;;;;;;-143.85;100.00;70650.75;4936643;29;20024;-91
2022/10/07 21:16:04;;;;;;;1.95;1.35;;;;;;;-143.85;100.00;70650.75;4936732;29;20035;-92
2022/10/07 21:18:30;;;;;;;2.80;2.38;;;;;;;-143.85;100.00;70650.75;4919525;29;20038;-91
2022/10/07 21:20:56;;;;;;;1.83;1.27;;;;;;;-143.85;100.00;70650.75;4936493;29;20031;-90
2022/10/07 21:23:22;;;;;;;2.25;1.40;;;;;;;-143.85;100.00;70650.75;4919739;29;20047;-91
2022/10/07 21:25:49;;;;;;;4.68;2.03;;;;;;;-143.85;100.00;70650.75;4920119;29;20058;-92
2022/10/07 21:28:14;;;;;;;2.63;2.25;;;;;;;-143.85;100.00;70650.75;4919443;29;20099;-93
2022/10/07 21:30:40;;;;;;;4.63;1.15;;;;;;;-143.85;100.00;70650.75;4920265;29;20027;-92
2022/10/07 21:33:06;;;;;;;3.22;1.50;;;;;;;-143.85;100.00;70650.75;4919477;29;20118;-92
2022/10/07 21:35:32;;;;;;;2.00;1.45;;;;;;;-143.85;100.00;70650.75;4919381;29;20111;-93
2022/10/07 21:37:58;;;;;;;2.83;1.40;;;;;;;-143.85;100.00;70650.75;4919403;29;20083;-91
2022/10/07 21:40:24;;;;;;;4.13;1.60;;;;;;;-143.85;100.00;70650.75;4919313;29;20090;-92
2022/10/07 21:42:50;;;;;;;1.05;1.05;;;;;;;-143.85;100.00;70650.75;4919315;29;20047;-91
2022/10/07 21:45:15;;;;;;;1.80;1.30;;;;;;;-143.85;100.00;70650.75;4919497;29;20023;-92
2022/10/07 21:47:41;;;;;;;13.35;1.65;;;;;;;-143.85;100.00;70650.75;4919338;29;20035;-91
2022/10/07 21:50:07;;;;;;;1.58;1.15;;;;;;;-143.85;100.00;70650.75;4919019;29;20051;-91
2022/10/07 21:52:32;;;;;;;1.40;1.30;;;;;;;-143.85;100.00;70650.75;4936532;29;20403;-91
2022/10/07 21:54:58;;;;;;;2.58;1.77;;;;;;;-143.85;100.00;70650.75;4935817;29;20028;-91
2022/10/07 21:57:23;;;;;;;1.75;1.13;;;;;;;-143.85;100.00;70650.75;4919151;29;20032;-91
2022/10/07 21:59:50;;;;;;;1.13;1.02;;;;;;;-143.85;100.00;70650.75;4936268;29;20031;-93
2022/10/07 22:02:15;;;;;;;2.05;1.30;;;;;;;-143.85;100.00;70650.75;4936097;29;20028;-93
2022/10/07 22:04:41;;;;;;;2.15;0.88;;;;;;;-143.85;100.00;70650.75;4916410;29;20423;-94
2022/10/07 22:09:53;;;;;;;3.40;1.00;;;;;;;-143.85;100.00;70650.75;4934168;29;20106;-90
2022/10/07 22:12:19;;;;;;;2.65;1.45;;;;;;;-143.85;100.00;70650.75;4935967;29;20024;-92
2022/10/07 22:14:44;;;;;;;3.72;1.15;;;;;;;-143.85;100.00;70650.75;4919038;29;20403;-90
2022/10/07 22:17:11;;;;;;;2.05;1.00;;;;;;;-143.85;100.00;70650.75;4919002;29;20039;-91
2022/10/07 22:19:37;;;;;;;1.88;0.95;;;;;;;-143.85;100.00;70650.75;4919151;29;20388;-93
2022/10/07 22:22:03;;;;;;;1.55;1.40;;;;;;;-143.85;100.00;70650.75;4921124;29;20083;-91
2022/10/07 22:24:29;;;;;;;1.70;1.38;;;;;;;-143.85;100.00;70650.75;4922990;29;20063;-92
2022/10/07 22:26:55;;;;;;;0.82;0.82;;;;;;;-143.85;100.00;70650.75;4923163;29;20400;-92
2022/10/07 22:29:20;;;;;;;2.45;0.98;;;;;;;-143.85;100.00;70650.75;4922976;29;20028;-92
2022/10/07 22:31:46;;;;;;;4.38;1.35;;;;;;;-143.85;100.00;70650.75;4922359;29;20114;-90
2022/10/07 22:35:26;;;;;;;5.20;1.83;;;;;;;-143.85;100.00;70650.75;4922764;29;20032;-92
2022/10/07 22:36:57;;;;;;;1.65;1.33;;;;;;;-143.85;100.00;70650.75;4936411;29;20559;-93
2022/10/07 22:39:24;;;;;;;1.90;1.17;;;;;;;-143.85;100.00;70650.75;4939596;29;20032;-92
2022/10/07 22:41:49;;;;;;;1.63;1.08;;;;;;;-143.85;100.00;70650.75;4922321;29;20484;-92
2022/10/07 22:44:15;;;;;;;1.48;0.95;;;;;;;-143.85;100.00;70650.75;4919949;29;20047;-91
2022/10/07 22:46:40;;;;;;;0.98;0.93;;;;;;;-143.85;100.00;70650.75;4922469;29;20118;-91
2022/10/07 22:49:06;;;;;;;2.05;1.10;;;;;;;-143.85;100.00;70650.75;4921911;29;20040;-91
2022/10/07 22:51:31;;;;;;;2.30;0.95;;;;;;;-143.85;100.00;70650.75;4928509;29;20058;-91
2022/10/07 22:53:56;;;;;;;5.32;1.45;;;;;;;-143.85;100.00;70650.75;4941247;29;20038;-92
2022/10/07 22:56:24;;;;;;;3.42;1.00;;;;;;;-143.85;100.00;70650.75;4941360;29;20054;-92
2022/10/07 22:58:58;;;;;;;1.57;1.47;;;;;;;-143.85;100.00;70650.75;4941461;29;20023;-91
2022/10/07 23:01:28;;;;;;;1.55;0.82;;;;;;;-143.85;100.00;70650.75;4955124;29;20031;-92
2022/10/07 23:03:54;;;;;;;3.53;1.27;;;;;;;-143.85;100.00;70650.75;4948982;29;20106;-91
2022/10/07 23:06:19;;;;;;;2.45;1.10;;;;;;;-143.85;100.00;70650.75;4941167;29;20118;-92
2022/10/07 23:08:47;;;;;;;2.00;1.77;;;;;;;-143.85;100.00;70650.75;4941597;29;20059;-92
2022/10/07 23:11:22;;;;;;;3.92;1.52;;;;;;;-143.85;100.00;70650.75;4940951;29;20122;-91
2022/10/07 23:13:48;;;;;;;3.22;1.45;;;;;;;-143.85;100.00;70650.75;4929841;29;20114;-91
2022/10/07 23:16:16;;;;;;;2.72;1.52;;;;;;;-143.85;100.00;70650.75;4940771;29;20031;-92
2022/10/07 23:18:43;;;;;;;1.92;1.05;;;;;;;-143.85;100.00;70650.75;4941081;29;20055;-91
2022/10/07 23:21:12;;;;;;;3.15;1.52;;;;;;;-143.85;100.00;70650.75;4940725;29;20023;-92
2022/10/07 23:23:39;;;;;;;3.78;1.58;;;;;;;-143.85;100.00;70650.75;4940646;29;20031;-91
2022/10/07 23:26:17;;;;;;;1.40;1.30;;;;;;;-143.85;100.00;70650.75;4940737;29;20104;-93
2022/10/07 23:28:43;;;;;;;;;;;;;;;-143.85;100.00;70650.75;4940960;29;20104;-91
2022/10/07 23:31:13;;;;;;;6.30;1.38;;;;;;;-143.85;100.00;70650.75;4940616;29;19910;-90
2022/10/07 23:33:39;;;;;;;1.27;1.23;;;;;;;-143.85;100.00;70650.75;4939789;29;20450;-89
2022/10/07 23:36:09;;;;;;;1.33;1.10;;;;;;;-143.85;100.00;70650.75;4940215;29;20085;-92
2022/10/07 23:38:37;;;;;;;2.75;1.23;;;;;;;-143.85;100.00;70650.75;4957498;29;20027;-90
2022/10/07 23:41:02;;;;;;;;;;;;;;;-143.85;100.00;70650.75;4940917;29;20034;-92
2022/10/07 23:43:32;;;;;;;4.28;1.27;;;;;;;-143.85;100.00;70650.75;4940542;29;19910;-92
2022/10/07 23:46:01;;;;;;;2.08;1.05;;;;;;;-143.85;100.00;70650.75;4957428;28;20123;-92
2022/10/07 23:48:26;;;;;;;3.33;1.23;;;;;;;-143.85;100.00;70650.75;4939981;29;20506;-92
2022/10/07 23:50:56;;;;;;;2.28;1.02;;;;;;;-143.85;100.00;70650.75;4939990;29;20051;-90
2022/10/07 23:53:22;;;;;;;1.10;1.00;;;;;;;-143.85;100.00;70650.75;4940252;29;20082;-93
2022/10/07 23:55:50;;;;;;;1.67;1.25;;;;;;;-143.85;100.00;70650.75;4957247;28;20035;-93
2022/10/07 23:58:17;;;;;;;2.40;1.00;;;;;;;-143.85;100.00;70650.75;4940251;29;20066;-91
